createdAt,value
2023-04-22T00:01:26.996Z,145355.53
2023-04-22T00:03:54.327Z,145366.50
2023-04-22T00:06:21.632Z,145378.59
2023-04-22T00:08:48.726Z,145314.25
2023-04-22T00:11:15.741Z,145342.19
2023-04-22T00:13:43.198Z,145351.94
2023-04-22T00:16:10.256Z,145328.88
2023-04-22T00:18:37.284Z,145342.19
2023-04-22T00:21:04.673Z,145288.81
2023-04-22T00:23:31.711Z,145343.44
2023-04-22T00:25:58.883Z,145313.06
2023-04-22T00:28:25.892Z,145283.97
2023-04-22T00:30:53.058Z,145359.19
2023-04-22T00:33:20.241Z,145357.97
2023-04-22T00:35:47.227Z,145351.94
2023-04-22T00:38:14.313Z,145291.22
2023-04-22T00:40:41.444Z,145283.97
2023-04-22T00:43:09.349Z,145286.34
2023-04-22T00:45:37.567Z,145311.88
2023-04-22T00:48:05.298Z,145254.78
2023-04-22T00:50:32.302Z,145282.72
2023-04-22T00:52:59.305Z,145258.44
2023-04-22T00:55:26.875Z,145298.50
2023-04-22T00:57:55.689Z,145296.06
2023-04-22T01:00:27.103Z,145259.66
2023-04-22T01:02:55.115Z,145257.25
2023-04-22T01:05:23.860Z,145276.66
2023-04-22T01:07:51.196Z,145264.50
2023-04-22T01:10:18.611Z,145260.91
2023-04-22T01:12:45.770Z,145264.50
2023-04-22T01:15:13.068Z,145282.72
2023-04-22T01:17:40.270Z,145303.38
2023-04-22T01:20:10.314Z,145291.22
2023-04-22T01:22:41.957Z,145308.22
2023-04-22T01:25:10.007Z,145316.72
2023-04-22T01:27:38.539Z,145292.47
2023-04-22T01:30:07.742Z,145298.50
2023-04-22T01:32:36.099Z,145294.88
2023-04-22T01:35:03.751Z,145281.50
2023-04-22T01:37:31.012Z,145287.56
2023-04-22T01:39:59.233Z,145265.75
2023-04-22T01:42:26.528Z,145281.50
2023-04-22T01:44:54.203Z,145325.22
2023-04-22T01:47:21.284Z,145242.66
2023-04-22T01:49:48.372Z,145290.00
2023-04-22T01:52:15.928Z,145274.25
2023-04-22T01:54:42.977Z,145286.34
2023-04-22T01:57:14.031Z,145293.66
2023-04-22T01:59:41.628Z,145266.94
2023-04-22T02:02:09.147Z,145296.06
2023-04-22T02:04:36.474Z,145298.50
2023-04-22T02:07:03.625Z,145228.06
2023-04-22T02:09:33.558Z,145282.72
2023-04-22T02:12:01.414Z,145281.50
2023-04-22T02:14:28.512Z,145246.25
2023-04-22T02:16:55.590Z,145274.25
2023-04-22T02:19:22.719Z,145231.69
2023-04-22T02:21:49.876Z,145240.19
2023-04-22T02:24:17.055Z,145259.66
2023-04-22T02:26:44.081Z,145298.50
2023-04-22T02:29:11.195Z,145290.00
2023-04-22T02:31:38.258Z,145317.91
2023-04-22T02:34:05.315Z,145321.56
2023-04-22T02:36:32.397Z,145331.28
2023-04-22T02:38:59.460Z,145334.94
2023-04-22T02:41:26.455Z,145311.88
2023-04-22T02:43:53.467Z,145315.50
2023-04-22T02:46:20.600Z,145384.69
2023-04-22T02:48:48.629Z,145377.41
2023-04-22T02:51:15.965Z,145362.84
2023-04-22T02:53:43.139Z,145339.78
2023-04-22T02:56:10.257Z,145281.50
2023-04-22T02:58:37.259Z,145332.47
2023-04-22T03:01:04.378Z,145344.63
2023-04-22T03:03:32.032Z,145364.03
2023-04-22T03:05:59.369Z,145356.78
2023-04-22T03:08:26.430Z,145349.47
2023-04-22T03:10:53.514Z,145317.91
2023-04-22T03:13:22.594Z,145300.91
2023-04-22T03:15:50.811Z,145316.72
2023-04-22T03:18:18.351Z,145317.91
2023-04-22T03:20:45.640Z,145336.13
2023-04-22T03:23:12.643Z,145344.63
2023-04-22T03:25:41.062Z,145336.13
2023-04-22T03:28:08.210Z,145338.56
2023-04-22T03:30:35.304Z,145377.41
2023-04-22T03:33:02.434Z,145344.63
2023-04-22T03:35:40.962Z,145361.63
2023-04-22T03:38:08.397Z,145359.19
2023-04-22T03:40:37.680Z,145376.19
2023-04-22T03:43:13.131Z,145393.22
2023-04-22T03:45:40.628Z,145402.91
2023-04-22T03:48:17.287Z,145394.41
2023-04-22T03:50:48.555Z,145388.34
2023-04-22T03:53:17.003Z,145336.13
2023-04-22T03:55:44.732Z,145259.66
2023-04-22T03:58:14.153Z,145330.06
2023-04-22T04:00:41.225Z,145365.28
2023-04-22T04:03:14.795Z,145381.06
2023-04-22T04:05:42.208Z,145364.03
2023-04-22T04:08:09.426Z,145377.41
2023-04-22T04:10:36.958Z,145401.72
2023-04-22T04:13:04.691Z,145378.59
2023-04-22T04:15:39.070Z,145389.56
2023-04-22T04:18:07.211Z,145383.50
2023-04-22T04:20:34.289Z,145315.50
2023-04-22T04:23:01.364Z,145393.22
2023-04-22T04:25:30.928Z,145402.91
2023-04-22T04:27:58.001Z,145390.75
2023-04-22T04:30:25.659Z,145338.56
2023-04-22T04:32:54.942Z,145375.00
2023-04-22T04:35:23.673Z,145410.16
2023-04-22T04:37:54.362Z,145487.88
2023-04-22T04:40:21.890Z,145490.34
2023-04-22T04:43:08.447Z,145501.25
2023-04-22T04:45:49.500Z,145524.31
2023-04-22T04:48:25.014Z,145555.91
2023-04-22T04:50:55.449Z,145570.50
2023-04-22T04:53:24.492Z,145559.56
2023-04-22T04:55:51.851Z,145587.50
2023-04-22T04:58:22.530Z,145609.38
2023-04-22T05:01:00.881Z,145630.03
2023-04-22T05:03:28.059Z,145636.09
2023-04-22T05:05:56.401Z,145643.41
2023-04-22T05:08:23.616Z,145654.31
2023-04-22T05:10:52.895Z,145667.69
2023-04-22T05:13:19.972Z,145687.13
2023-04-22T05:15:48.630Z,145701.75
2023-04-22T05:18:17.997Z,145711.50
2023-04-22T05:20:45.135Z,145709.06
2023-04-22T05:23:12.333Z,145729.75
2023-04-22T05:25:39.550Z,145775.91
2023-04-22T05:28:10.640Z,145751.56
2023-04-22T05:30:45.411Z,145779.53
2023-04-22T05:33:12.544Z,145772.25
2023-04-22T05:35:39.721Z,145752.81
2023-04-22T05:38:07.731Z,145818.44
2023-04-22T05:40:36.828Z,145823.31
2023-04-22T05:43:05.617Z,145808.72
2023-04-22T05:45:33.471Z,145869.50
2023-04-22T05:48:00.934Z,145851.25
2023-04-22T05:50:32.184Z,145880.47
2023-04-22T05:53:05.838Z,145927.88
2023-04-22T05:55:32.908Z,145875.56
2023-04-22T05:57:59.963Z,145925.41
2023-04-22T06:00:43.589Z,145978.94
2023-04-22T06:03:31.419Z,145954.63
2023-04-22T06:05:58.788Z,145987.44
2023-04-22T06:08:25.987Z,146010.56
2023-04-22T06:10:53.005Z,146056.78
2023-04-22T06:13:21.625Z,146070.16
2023-04-22T06:15:48.864Z,146042.19
2023-04-22T06:18:16.011Z,146066.50
2023-04-22T06:20:43.064Z,146090.91
2023-04-22T06:23:10.129Z,146083.59
2023-04-22T06:25:37.183Z,146098.19
2023-04-22T06:28:04.466Z,146134.69
2023-04-22T06:30:34.826Z,146137.13
2023-04-22T06:33:01.937Z,146169.97
2023-04-22T06:35:29.113Z,146178.50
2023-04-22T06:37:56.311Z,146202.84
2023-04-22T06:40:28.043Z,146280.72
2023-04-22T06:43:13.970Z,146330.63
2023-04-22T06:45:59.530Z,146326.97
2023-04-22T06:48:45.698Z,146323.38
2023-04-22T06:51:31.898Z,146330.63
2023-04-22T06:53:59.079Z,146383.03
2023-04-22T06:56:26.184Z,146373.28
2023-04-22T06:58:53.343Z,146395.16
2023-04-22T07:01:20.818Z,146376.91
2023-04-22T07:03:48.080Z,146402.50
2023-04-22T07:06:15.873Z,146364.75
2023-04-22T07:08:42.971Z,146422.00
2023-04-22T07:11:11.939Z,146473.16
2023-04-22T07:13:46.708Z,146495.09
2023-04-22T07:16:13.876Z,146502.41
2023-04-22T07:18:40.971Z,146524.34
2023-04-22T07:21:08.288Z,146585.22
2023-04-22T07:23:35.368Z,146609.59
2023-04-22T07:26:02.795Z,146635.19
2023-04-22T07:28:29.989Z,146644.94
2023-04-22T07:30:57.123Z,146636.41
2023-04-22T07:33:24.135Z,146616.91
2023-04-22T07:35:51.252Z,146653.47
2023-04-22T07:38:18.319Z,146708.31
2023-04-22T07:40:45.399Z,146726.63
2023-04-22T07:43:12.558Z,146782.69
2023-04-22T07:45:39.657Z,146826.59
2023-04-22T07:48:06.709Z,146892.41
2023-04-22T07:50:33.687Z,146894.88
2023-04-22T07:53:00.851Z,146899.75
2023-04-22T07:55:27.972Z,146843.63
2023-04-22T07:57:55.136Z,146853.44
2023-04-22T08:00:22.129Z,146874.13
2023-04-22T08:02:49.230Z,146946.09
2023-04-22T08:05:16.317Z,146954.63
2023-04-22T08:07:43.519Z,146957.03
2023-04-22T08:10:10.928Z,146986.34
2023-04-22T08:12:38.028Z,147048.56
2023-04-22T08:15:05.919Z,147102.25
2023-04-22T08:17:33.101Z,147152.28
2023-04-22T08:20:00.150Z,147185.22
2023-04-22T08:22:27.493Z,147190.09
2023-04-22T08:24:54.529Z,147234.06
2023-04-22T08:27:22.805Z,147230.38
2023-04-22T08:29:49.836Z,147292.69
2023-04-22T08:32:19.499Z,147300.00
2023-04-22T08:34:46.716Z,147331.72
2023-04-22T08:37:14.047Z,147354.94
2023-04-22T08:39:41.226Z,147363.47
2023-04-22T08:42:09.273Z,147368.34
2023-04-22T08:44:37.708Z,147392.75
2023-04-22T08:47:05.304Z,147415.97
2023-04-22T08:49:35.150Z,147457.53
2023-04-22T08:52:02.217Z,147497.84
2023-04-22T08:54:29.271Z,147497.84
2023-04-22T08:56:56.952Z,147511.28
2023-04-22T08:59:24.123Z,147554.06
2023-04-22T09:01:55.367Z,147610.22
2023-04-22T09:04:22.776Z,147654.19
2023-04-22T09:06:49.930Z,147656.66
2023-04-22T09:09:17.338Z,147639.53
2023-04-22T09:11:44.365Z,147660.31
2023-04-22T09:14:11.374Z,147687.22
2023-04-22T09:16:44.718Z,147664.00
2023-04-22T09:19:13.128Z,147683.53
2023-04-22T09:21:41.385Z,147775.25
2023-04-22T09:24:10.551Z,147800.88
2023-04-22T09:26:42.657Z,147719.03
2023-04-22T09:29:14.765Z,147873.00
2023-04-22T09:31:42.352Z,147901.13
2023-04-22T09:34:09.547Z,147832.66
2023-04-22T09:36:40.542Z,147857.16
2023-04-22T09:39:08.201Z,147870.59
2023-04-22T09:41:38.775Z,147766.69
2023-04-22T09:44:11.035Z,147794.78
2023-04-22T09:46:38.021Z,147793.56
2023-04-22T09:49:05.689Z,147822.88
2023-04-22T09:51:32.774Z,147844.91
2023-04-22T09:54:06.277Z,147813.13
2023-04-22T09:56:53.563Z,147808.22
2023-04-22T09:59:22.332Z,147744.66
2023-04-22T10:02:03.920Z,147798.47
2023-04-22T10:04:31.349Z,147849.78
2023-04-22T10:06:59.687Z,147825.34
2023-04-22T10:09:26.955Z,147913.38
2023-04-22T10:11:55.799Z,147972.13
2023-04-22T10:14:23.216Z,148071.13
2023-04-22T10:16:54.480Z,148076.03
2023-04-22T10:19:23.275Z,148014.91
2023-04-22T10:21:55.772Z,147996.56
2023-04-22T10:24:25.271Z,148091.97
2023-04-22T10:27:00.024Z,148013.69
2023-04-22T10:29:39.352Z,148003.91
2023-04-22T10:32:24.463Z,147942.75
2023-04-22T10:35:08.217Z,147959.88
2023-04-22T10:37:35.807Z,148109.09
2023-04-22T10:40:16.623Z,148196.00
2023-04-22T10:42:52.477Z,148204.53
2023-04-22T10:45:24.796Z,148275.53
2023-04-22T10:47:52.044Z,148353.91
2023-04-22T10:50:31.495Z,148282.84
2023-04-22T10:53:22.444Z,148165.41
2023-04-22T10:55:53.405Z,148131.06
2023-04-22T10:58:24.137Z,148098.06
2023-04-22T11:01:00.232Z,148018.56
2023-04-22T11:03:30.358Z,148033.25
2023-04-22T11:06:30.101Z,148084.59
2023-04-22T11:09:12.817Z,148062.63
2023-04-22T11:11:39.828Z,148138.44
2023-04-22T11:14:09.003Z,148126.19
2023-04-22T11:16:36.994Z,148151.94
2023-04-22T11:19:04.033Z,148170.28
2023-04-22T11:21:31.548Z,148299.97
2023-04-22T11:24:02.778Z,148339.16
2023-04-22T11:26:35.325Z,148299.97
2023-04-22T11:29:02.357Z,148331.81
2023-04-22T11:31:29.304Z,148214.34
2023-04-22T11:33:59.684Z,148166.63
2023-04-22T11:36:27.609Z,148158.03
2023-04-22T11:38:57.459Z,148145.84
2023-04-22T11:41:24.527Z,148199.63
2023-04-22T11:43:51.929Z,148170.28
2023-04-22T11:46:29.109Z,148139.66
2023-04-22T11:49:12.382Z,148100.53
2023-04-22T11:51:52.912Z,148094.38
2023-04-22T11:54:36.869Z,147973.31
2023-04-22T11:57:06.631Z,147984.31
2023-04-22T11:59:34.507Z,147967.22
2023-04-22T12:02:05.520Z,148016.09
2023-04-22T12:04:38.217Z,147996.56
2023-04-22T12:07:05.397Z,147996.56
2023-04-22T12:09:33.538Z,147893.81
2023-04-22T12:12:03.626Z,147941.53
2023-04-22T12:14:34.832Z,147977.00
2023-04-22T12:17:05.805Z,148034.44
2023-04-22T12:19:32.879Z,148104.19
2023-04-22T12:21:59.943Z,148156.84
2023-04-22T12:24:28.423Z,148159.31
2023-04-22T12:26:55.617Z,148285.31
2023-04-22T12:29:33.200Z,148258.38
2023-04-22T12:32:00.788Z,148229.03
2023-04-22T12:34:27.870Z,148241.22
2023-04-22T12:36:56.219Z,148324.50
2023-04-22T12:39:23.251Z,148344.06
2023-04-22T12:41:51.004Z,148442.03
2023-04-22T12:44:18.179Z,148464.06
2023-04-22T12:46:46.477Z,148508.16
2023-04-22T12:49:14.465Z,148465.28
2023-04-22T12:51:41.491Z,148535.06
2023-04-22T12:54:08.579Z,148517.94
2023-04-22T12:56:36.158Z,148466.50
2023-04-22T12:59:03.327Z,148434.69
2023-04-22T13:01:31.263Z,148282.84
2023-04-22T13:03:58.584Z,148352.69
2023-04-22T13:06:26.767Z,148312.22
2023-04-22T13:08:53.765Z,148482.44
2023-04-22T13:11:21.852Z,148586.56
2023-04-22T13:13:48.974Z,148471.44
2023-04-22T13:16:16.604Z,148456.69
2023-04-22T13:18:43.785Z,148432.22
2023-04-22T13:21:13.626Z,148324.50
2023-04-22T13:23:40.648Z,148253.50
2023-04-22T13:26:07.744Z,148323.22
2023-04-22T13:28:34.772Z,148273.06
2023-04-22T13:31:02.126Z,148173.97
2023-04-22T13:33:29.120Z,148116.41
2023-04-22T13:35:56.193Z,148056.47
2023-04-22T13:38:23.264Z,148079.72
2023-04-22T13:40:50.239Z,148080.97
2023-04-22T13:43:17.372Z,148079.72
2023-04-22T13:45:44.557Z,148057.69
2023-04-22T13:48:11.612Z,147994.13
2023-04-22T13:50:42.464Z,148002.66
2023-04-22T13:53:11.803Z,147973.31
2023-04-22T13:55:39.369Z,148027.13
2023-04-22T13:58:07.559Z,147935.38
2023-04-22T14:00:35.082Z,147947.63
2023-04-22T14:03:02.383Z,147886.47
2023-04-22T14:05:29.542Z,147864.44
2023-04-22T14:07:56.746Z,147859.56
2023-04-22T14:10:23.774Z,147810.69
2023-04-22T14:12:51.012Z,147840.00
2023-04-22T14:15:18.080Z,147796.00
2023-04-22T14:17:49.160Z,147749.56
2023-04-22T14:20:16.340Z,147774.03
2023-04-22T14:22:43.318Z,147732.47
2023-04-22T14:25:10.689Z,147720.25
2023-04-22T14:27:37.961Z,147683.53
2023-04-22T14:30:06.383Z,147716.53
2023-04-22T14:32:33.492Z,147725.13
2023-04-22T14:35:00.627Z,147723.91
2023-04-22T14:37:27.779Z,147695.78
2023-04-22T14:39:54.959Z,147809.44
2023-04-22T14:42:21.988Z,147858.34
2023-04-22T14:44:49.233Z,147888.94
2023-04-22T14:47:16.212Z,147954.97
2023-04-22T14:49:43.403Z,147891.34
2023-04-22T14:52:10.714Z,147879.16
2023-04-22T14:54:37.755Z,147939.09
2023-04-22T14:57:04.875Z,147942.75
2023-04-22T14:59:31.868Z,147967.22
2023-04-22T15:01:58.994Z,147997.75
2023-04-22T15:04:26.521Z,147973.31
2023-04-22T15:06:57.333Z,147923.16
2023-04-22T15:09:24.500Z,147876.69
2023-04-22T15:11:51.773Z,147854.69
2023-04-22T15:14:18.880Z,147814.31
2023-04-22T15:16:45.888Z,147777.66
2023-04-22T15:19:13.671Z,147710.44
2023-04-22T15:21:40.680Z,147759.31
2023-04-22T15:24:07.731Z,147754.44
2023-04-22T15:26:34.855Z,147759.31
2023-04-22T15:29:02.143Z,147744.66
2023-04-22T15:31:29.247Z,147698.19
2023-04-22T15:33:56.282Z,147662.75
2023-04-22T15:36:23.456Z,147659.13
2023-04-22T15:38:57.523Z,147670.09
2023-04-22T15:41:26.202Z,147659.13
2023-04-22T15:43:53.360Z,147571.13
2023-04-22T15:46:21.473Z,147558.94
2023-04-22T15:48:49.137Z,147541.81
2023-04-22T15:51:16.756Z,147534.47
2023-04-22T15:53:45.455Z,147547.91
2023-04-22T15:56:14.744Z,147500.28
2023-04-22T15:58:41.788Z,147539.34
2023-04-22T16:01:18.838Z,147540.63
2023-04-22T16:03:49.920Z,147558.94
2023-04-22T16:06:18.382Z,147556.47
2023-04-22T16:08:45.820Z,147484.34
2023-04-22T16:11:14.257Z,147502.72
2023-04-22T16:13:41.721Z,147485.59
2023-04-22T16:16:09.265Z,147461.16
2023-04-22T16:18:36.536Z,147417.22
2023-04-22T16:21:04.297Z,147440.41
2023-04-22T16:23:32.086Z,147453.84
2023-04-22T16:25:59.241Z,147429.41
2023-04-22T16:28:26.515Z,147439.22
2023-04-22T16:30:53.611Z,147441.63
2023-04-22T16:33:20.670Z,147495.41
2023-04-22T16:35:47.975Z,147539.34
2023-04-22T16:38:15.004Z,147543.03
2023-04-22T16:40:42.043Z,147461.16
2023-04-22T16:43:09.914Z,147524.72
2023-04-22T16:45:37.001Z,147511.28
2023-04-22T16:48:04.017Z,147507.59
2023-04-22T16:50:31.619Z,147466.03
2023-04-22T16:52:58.609Z,147567.50
2023-04-22T16:55:25.620Z,147514.94
2023-04-22T16:57:52.820Z,147544.25
2023-04-22T17:00:20.793Z,147578.47
2023-04-22T17:02:47.938Z,147554.06
2023-04-22T17:05:15.199Z,147505.19
2023-04-22T17:07:42.312Z,147478.25
2023-04-22T17:10:09.408Z,147512.53
2023-04-22T17:12:36.465Z,147497.84
2023-04-22T17:15:03.993Z,147444.09
2023-04-22T17:17:31.041Z,147485.59
2023-04-22T17:19:58.225Z,147389.13
2023-04-22T17:22:25.453Z,147374.44
2023-04-22T17:24:52.540Z,147380.59
2023-04-22T17:27:19.608Z,147396.44
2023-04-22T17:29:46.751Z,147345.16
2023-04-22T17:32:13.814Z,147312.22
2023-04-22T17:34:41.166Z,147238.94
2023-04-22T17:37:08.540Z,147202.31
2023-04-22T17:39:35.782Z,147187.69
2023-04-22T17:42:02.901Z,147160.84
2023-04-22T17:44:31.011Z,147154.69
2023-04-22T17:46:58.213Z,147146.19
2023-04-22T17:49:25.211Z,147124.22
2023-04-22T17:51:53.499Z,147080.28
2023-04-22T17:54:20.646Z,147046.16
2023-04-22T17:56:47.714Z,147083.97
2023-04-22T17:59:14.723Z,147046.16
2023-04-22T18:01:42.873Z,146992.47
2023-04-22T18:04:11.069Z,147001.00
2023-04-22T18:06:38.113Z,147019.31
2023-04-22T18:09:05.678Z,146982.69
2023-04-22T18:11:32.749Z,146982.69
2023-04-22T18:13:59.830Z,146959.50
2023-04-22T18:16:26.893Z,146970.47
2023-04-22T18:18:53.921Z,146938.75
2023-04-22T18:21:21.035Z,146936.34
2023-04-22T18:23:48.140Z,146919.25
2023-04-22T18:26:15.163Z,146921.72
2023-04-22T18:28:44.327Z,146890.00
2023-04-22T18:31:11.507Z,146903.41
2023-04-22T18:33:38.635Z,146916.78
2023-04-22T18:36:06.091Z,146909.50
2023-04-22T18:38:33.108Z,146885.13
2023-04-22T18:41:00.092Z,146911.91
2023-04-22T18:43:27.160Z,146890.00
2023-04-22T18:45:54.319Z,146875.34
2023-04-22T18:48:22.292Z,146853.44
2023-04-22T18:50:50.312Z,146853.44
2023-04-22T18:53:17.375Z,146833.88
2023-04-22T18:55:44.449Z,146843.63
2023-04-22T18:58:11.463Z,146820.47
2023-04-22T19:00:38.583Z,146831.47
2023-04-22T19:03:05.818Z,146819.25
2023-04-22T19:05:32.912Z,146803.44
2023-04-22T19:07:59.885Z,146840.00
2023-04-22T19:10:26.991Z,146830.25
2023-04-22T19:12:53.996Z,146838.75
2023-04-22T19:15:21.595Z,146804.66
2023-04-22T19:17:48.701Z,146807.06
2023-04-22T19:20:15.930Z,146824.13
2023-04-22T19:22:44.059Z,146794.91
2023-04-22T19:25:11.223Z,146782.69
2023-04-22T19:27:38.295Z,146820.47
2023-04-22T19:30:07.038Z,146763.19
2023-04-22T19:32:34.093Z,146802.19
2023-04-22T19:35:03.876Z,146783.91
2023-04-22T19:37:31.299Z,146787.56
2023-04-22T19:39:58.288Z,146826.59
2023-04-22T19:42:25.324Z,146802.19
2023-04-22T19:44:52.350Z,146779.03
2023-04-22T19:47:19.531Z,146755.88
2023-04-22T19:49:46.771Z,146683.94
2023-04-22T19:52:15.522Z,146703.44
2023-04-22T19:54:47.642Z,146675.41
2023-04-22T19:57:15.216Z,146651.00
2023-04-22T19:59:43.193Z,146674.16
2023-04-22T20:02:11.267Z,146648.59
2023-04-22T20:04:38.641Z,146677.81
2023-04-22T20:07:06.968Z,146655.88
2023-04-22T20:09:35.426Z,146675.41
2023-04-22T20:12:02.986Z,146651.00
2023-04-22T20:14:31.524Z,146663.22
2023-04-22T20:16:58.801Z,146613.25
2023-04-22T20:19:27.557Z,146636.41
2023-04-22T20:21:57.233Z,146665.66
2023-04-22T20:24:25.800Z,146658.34
2023-04-22T20:26:52.890Z,146614.47
2023-04-22T20:29:21.215Z,146641.28
2023-04-22T20:31:48.607Z,146604.72
2023-04-22T20:34:15.778Z,146524.34
2023-04-22T20:36:42.834Z,146565.75
2023-04-22T20:39:14.026Z,146604.72
2023-04-22T20:41:41.531Z,146597.44
2023-04-22T20:44:09.191Z,146575.50
2023-04-22T20:46:37.784Z,146564.50
2023-04-22T20:49:04.820Z,146607.19
2023-04-22T20:51:32.053Z,146603.50
2023-04-22T20:53:59.152Z,146563.31
2023-04-22T20:56:27.320Z,146563.31
2023-04-22T20:58:54.352Z,146626.66
2023-04-22T21:01:21.584Z,146587.66
2023-04-22T21:03:52.702Z,146601.06
2023-04-22T21:06:21.114Z,146614.47
2023-04-22T21:08:52.537Z,146587.66
2023-04-22T21:11:19.824Z,146594.97
2023-04-22T21:13:48.741Z,146556.00
2023-04-22T21:16:18.726Z,146570.63
2023-04-22T21:18:46.321Z,146512.16
2023-04-22T21:21:16.169Z,146521.88
2023-04-22T21:23:43.609Z,146534.09
2023-04-22T21:26:11.048Z,146492.66
2023-04-22T21:28:39.053Z,146537.75
2023-04-22T21:31:06.590Z,146530.41
2023-04-22T21:33:33.578Z,146470.75
2023-04-22T21:36:00.748Z,146441.47
2023-04-22T21:38:27.908Z,146478.03
2023-04-22T21:40:55.092Z,146480.47
2023-04-22T21:43:22.282Z,146474.41
2023-04-22T21:45:49.364Z,146451.25
2023-04-22T21:48:16.516Z,146451.25
2023-04-22T21:50:44.122Z,146454.88
2023-04-22T21:53:11.790Z,146485.34
2023-04-22T21:55:38.996Z,146473.16
2023-04-22T21:58:06.037Z,146429.34
2023-04-22T22:00:33.251Z,146481.69
2023-04-22T22:03:00.417Z,146474.41
2023-04-22T22:05:27.572Z,146473.16
2023-04-22T22:07:55.244Z,146465.88
2023-04-22T22:10:23.440Z,146385.44
2023-04-22T22:12:51.254Z,146468.28
2023-04-22T22:15:18.507Z,146452.47
2023-04-22T22:17:45.919Z,146465.88
2023-04-22T22:20:18.056Z,146429.34
2023-04-22T22:22:45.111Z,146456.13
2023-04-22T22:25:14.193Z,146456.13
2023-04-22T22:27:45.612Z,146434.19
2023-04-22T22:30:13.683Z,146454.88
2023-04-22T22:32:41.109Z,146392.75
2023-04-22T22:35:08.552Z,146448.81
2023-04-22T22:37:35.833Z,146450.00
2023-04-22T22:40:03.539Z,146408.56
2023-04-22T22:42:30.628Z,146437.88
2023-04-22T22:44:57.794Z,146446.41
2023-04-22T22:47:25.573Z,146431.75
2023-04-22T22:49:53.170Z,146370.84
2023-04-22T22:52:20.329Z,146402.50
2023-04-22T22:54:48.761Z,146422.00
2023-04-22T22:57:16.238Z,146430.53
2023-04-22T22:59:43.267Z,146407.34
2023-04-22T23:02:10.735Z,146402.50
2023-04-22T23:04:39.262Z,146396.41
2023-04-22T23:07:06.478Z,146383.03
2023-04-22T23:09:33.505Z,146401.28
2023-04-22T23:12:00.831Z,146417.13
2023-04-22T23:14:28.095Z,146412.28
2023-04-22T23:16:55.179Z,146419.59
2023-04-22T23:19:23.156Z,146429.34
2023-04-22T23:21:50.537Z,146413.47
2023-04-22T23:24:17.914Z,146414.72
2023-04-22T23:26:45.796Z,146384.22
2023-04-22T23:29:13.093Z,146412.28
2023-04-22T23:31:40.595Z,146328.22
2023-04-22T23:34:08.019Z,146290.47
2023-04-22T23:36:38.912Z,146234.47
2023-04-22T23:39:06.785Z,146210.16
2023-04-22T23:41:33.910Z,146142.00
2023-04-22T23:44:01.007Z,146151.72
2023-04-22T23:46:28.202Z,146096.97
2023-04-22T23:48:55.518Z,146095.78
2023-04-22T23:51:22.745Z,146034.88
2023-04-22T23:53:49.778Z,146072.63
2023-04-22T23:56:20.994Z,146078.72
2023-04-22T23:58:51.331Z,146011.78
